Pagrindinis puslapis
METAR-TAF:

METAR-TAF

Oro uostai :

Toblach, Italija

platuma: 46-44N, ilguma: 012-13E, Aukštis: 1222 m

Dabartinis oras

Ataskaita buvo paskelbta 1 valandą ir 36 minutes, ne 17:55 UTC
Vėjas 8 kt iš Rytų
Temperatūra 12°C
Drėgmė 67%
Slėgis 1025 hPa
Matomumas 10 km arba daugiau
nėra debesų žemiau 1500 m ir nėra kamuolinių lietaus debesų

METAR: LIVD 191755Z 09008KT CAVOK 12/06 Q1025 RMK SKC VIS MIN 9999

Laikas: 21:31 (19:31 UTC)


TAF: trūkstamas

Orai ataskaitas ir orų prognozės (METAR, TAF).

turimą stotys yra geltonos ir raudonos taškus žemėlapyje.

Perkelti pele per norėdami pamatyti stoties vardą.

Tada spustelėkite, norėdami matyti oro stebėjimo ir prognozės.

Norėdami pakeisti žemėlapį: spustelėkite ant žalios mygtukų su juodo kryžiaus žemyn,; žalią mygtuką su brūkšneliu, jei norite nutolinti; arba žalių rodyklių gretimoms žemėlapius.


METAR-TAF: